createdAt,value
2022-11-09T00:00:48.981Z,96043.25
2022-11-09T00:03:15.733Z,96025.13
2022-11-09T00:05:42.525Z,96032.78
2022-11-09T00:08:10.883Z,96040.56
2022-11-09T00:10:38.326Z,96030.97
2022-11-09T00:13:05.344Z,96040.06
2022-11-09T00:15:31.966Z,96043.00
2022-11-09T00:18:01.688Z,96071.75
2022-11-09T00:20:28.317Z,96064.00
2022-11-09T00:22:55.027Z,96027.78
2022-11-09T00:25:21.708Z,96034.88
2022-11-09T00:27:48.303Z,96078.19
2022-11-09T00:30:15.437Z,96051.94
2022-11-09T00:32:42.101Z,96077.88
2022-11-09T00:35:09.206Z,96040.28
2022-11-09T00:37:35.893Z,96051.50
2022-11-09T00:40:02.607Z,96012.09
2022-11-09T00:42:29.456Z,95984.91
2022-11-09T00:44:56.084Z,96036.81
2022-11-09T00:47:22.874Z,96023.16
2022-11-09T00:49:49.512Z,96040.59
2022-11-09T00:52:16.187Z,96042.34
2022-11-09T00:54:42.852Z,96049.41
2022-11-09T00:57:12.861Z,96058.81
2022-11-09T00:59:42.767Z,96034.75
2022-11-09T01:02:09.374Z,96025.38
2022-11-09T01:04:36.068Z,96053.88
2022-11-09T01:07:02.783Z,96030.41
2022-11-09T01:09:29.703Z,95986.91
2022-11-09T01:11:56.262Z,96032.44
2022-11-09T01:14:23.454Z,96046.59
2022-11-09T01:16:50.705Z,96009.59
2022-11-09T01:19:17.962Z,96031.47
2022-11-09T01:21:45.505Z,96015.78
2022-11-09T01:24:12.152Z,95983.81
2022-11-09T01:26:38.764Z,96025.47
2022-11-09T01:29:05.382Z,96051.03
2022-11-09T01:31:33.313Z,96054.84
2022-11-09T01:34:01.971Z,96043.59
2022-11-09T01:36:28.558Z,96045.91
2022-11-09T01:38:55.189Z,96026.25
2022-11-09T01:41:24.742Z,96050.50
2022-11-09T01:44:08.252Z,96052.50
2022-11-09T01:46:45.447Z,96019.72
2022-11-09T01:49:23.223Z,96027.97
2022-11-09T01:52:08.822Z,96035.63
2022-11-09T01:54:44.145Z,95973.72
2022-11-09T01:57:14.922Z,95986.03
2022-11-09T01:59:46.735Z,96033.59
2022-11-09T02:02:13.660Z,95984.97
2022-11-09T02:04:50.192Z,96001.94
2022-11-09T02:07:17.266Z,95994.56
2022-11-09T02:10:04.021Z,96031.66
2022-11-09T02:12:34.394Z,96001.94
2022-11-09T02:15:04.738Z,96019.16
2022-11-09T02:17:32.566Z,96001.66
2022-11-09T02:19:59.344Z,96014.25
2022-11-09T02:22:27.422Z,95961.28
2022-11-09T02:24:56.317Z,95991.59
2022-11-09T02:27:24.170Z,95917.41
2022-11-09T02:29:52.241Z,95977.44
2022-11-09T02:32:29.173Z,95912.84
2022-11-09T02:34:58.110Z,95998.84
2022-11-09T02:37:37.820Z,95920.50
2022-11-09T02:40:09.969Z,95988.88
2022-11-09T02:42:36.647Z,96006.69
2022-11-09T02:45:03.465Z,96003.00
2022-11-09T02:47:30.168Z,95992.75
2022-11-09T02:49:58.034Z,95978.00
2022-11-09T02:52:26.388Z,95982.88
2022-11-09T02:54:53.580Z,95946.47
2022-11-09T02:57:20.295Z,95971.81
2022-11-09T02:59:47.136Z,95942.69
2022-11-09T03:02:14.283Z,96003.13
2022-11-09T03:04:40.935Z,95986.84
2022-11-09T03:07:08.638Z,96005.50
2022-11-09T03:09:36.108Z,95967.28
2022-11-09T03:12:22.897Z,96005.09
2022-11-09T03:14:49.609Z,95964.63
2022-11-09T03:17:17.548Z,96005.47
2022-11-09T03:19:45.152Z,96020.22
2022-11-09T03:22:12.421Z,96019.94
2022-11-09T03:24:39.132Z,96004.66
2022-11-09T03:27:05.984Z,96014.06
2022-11-09T03:29:33.479Z,96046.03
2022-11-09T03:32:00.247Z,96046.03
2022-11-09T03:34:26.982Z,96036.34
2022-11-09T03:36:53.843Z,96030.81
2022-11-09T03:39:21.821Z,96032.25
2022-11-09T03:41:48.478Z,95985.00
2022-11-09T03:44:15.177Z,96005.03
2022-11-09T03:46:41.874Z,96021.44
2022-11-09T03:49:08.514Z,95963.78
2022-11-09T03:51:35.175Z,96003.78
2022-11-09T03:54:01.764Z,95929.53
2022-11-09T03:56:28.394Z,95994.84
2022-11-09T03:58:54.996Z,95971.91
2022-11-09T04:01:21.950Z,95986.63
2022-11-09T04:03:48.635Z,95998.94
2022-11-09T04:06:15.272Z,95988.09
2022-11-09T04:08:44.659Z,96017.31
2022-11-09T04:11:13.636Z,95920.72
2022-11-09T04:13:40.253Z,96049.81
2022-11-09T04:16:07.087Z,95995.13
2022-11-09T04:18:33.786Z,96023.22
2022-11-09T04:21:00.390Z,95980.91
2022-11-09T04:23:27.205Z,95973.94
2022-11-09T04:25:53.870Z,95977.03
2022-11-09T04:28:20.512Z,95961.38
2022-11-09T04:30:47.195Z,95997.34
2022-11-09T04:33:13.824Z,95999.06
2022-11-09T04:35:40.480Z,96004.03
2022-11-09T04:38:10.320Z,95996.97
2022-11-09T04:40:37.296Z,95939.03
2022-11-09T04:43:06.125Z,96029.16
2022-11-09T04:45:34.471Z,96023.91
2022-11-09T04:48:02.891Z,96001.94
2022-11-09T04:50:29.888Z,96024.09
2022-11-09T04:53:07.772Z,96020.44
2022-11-09T04:55:34.975Z,96022.47
2022-11-09T04:58:01.774Z,96039.44
2022-11-09T05:00:28.419Z,96011.63
2022-11-09T05:02:55.173Z,96023.72
2022-11-09T05:05:21.864Z,95985.59
2022-11-09T05:07:48.507Z,95998.16
2022-11-09T05:10:15.551Z,96010.56
2022-11-09T05:12:45.897Z,96027.50
2022-11-09T05:15:12.845Z,95997.31
2022-11-09T05:17:39.421Z,95986.16
2022-11-09T05:20:06.505Z,96033.72
2022-11-09T05:22:51.824Z,95995.34
2022-11-09T05:25:18.445Z,96040.97
2022-11-09T05:27:45.026Z,96017.16
2022-11-09T05:30:12.127Z,95976.69
2022-11-09T05:32:39.486Z,96004.06
2022-11-09T05:35:06.575Z,95999.69
2022-11-09T05:37:33.172Z,96000.00
2022-11-09T05:39:59.868Z,95978.88
2022-11-09T05:42:26.482Z,95994.97
2022-11-09T05:44:53.113Z,95984.41
2022-11-09T05:47:20.199Z,95937.66
2022-11-09T05:49:46.868Z,96003.59
2022-11-09T05:52:13.574Z,96047.28
2022-11-09T05:54:40.313Z,96035.63
2022-11-09T05:57:07.198Z,95943.94
2022-11-09T05:59:33.864Z,96047.44
2022-11-09T06:02:00.575Z,95961.53
2022-11-09T06:04:27.268Z,96033.31
2022-11-09T06:06:54.008Z,95996.75
2022-11-09T06:09:20.706Z,96046.34
2022-11-09T06:11:47.362Z,96045.72
2022-11-09T06:14:14.067Z,96072.84
2022-11-09T06:16:40.684Z,96059.09
2022-11-09T06:19:07.469Z,96055.06
2022-11-09T06:21:34.158Z,95995.03
2022-11-09T06:24:00.737Z,96024.78
2022-11-09T06:26:27.475Z,96048.03
2022-11-09T06:28:54.053Z,96073.69
2022-11-09T06:31:20.735Z,96086.00
2022-11-09T06:33:47.322Z,96062.47
2022-11-09T06:36:13.978Z,96099.41
2022-11-09T06:38:40.781Z,96103.91
2022-11-09T06:41:07.506Z,96116.59
2022-11-09T06:43:34.102Z,96119.41
2022-11-09T06:46:03.574Z,96075.94
2022-11-09T06:48:30.279Z,96057.34
2022-11-09T06:51:01.489Z,96138.50
2022-11-09T06:53:29.905Z,96102.06
2022-11-09T06:56:00.850Z,96115.94
2022-11-09T06:58:28.273Z,96130.28
2022-11-09T07:00:55.608Z,96139.13
2022-11-09T07:03:23.532Z,96125.75
2022-11-09T07:05:52.220Z,96137.09
2022-11-09T07:08:19.343Z,96140.50
2022-11-09T07:10:46.223Z,96061.72
2022-11-09T07:13:13.212Z,96125.75
2022-11-09T07:15:40.714Z,96144.84
2022-11-09T07:18:11.953Z,96073.09
2022-11-09T07:20:38.614Z,96058.28
2022-11-09T07:23:05.323Z,96122.41
2022-11-09T07:25:32.220Z,96048.00
2022-11-09T07:28:07.565Z,96129.22
2022-11-09T07:30:36.528Z,96121.56
2022-11-09T07:33:11.270Z,96092.72
2022-11-09T07:35:38.236Z,96081.00
2022-11-09T07:38:04.929Z,96091.28
2022-11-09T07:40:31.598Z,96097.88
2022-11-09T07:42:59.662Z,96108.75
2022-11-09T07:45:27.141Z,96103.53
2022-11-09T07:48:01.324Z,96126.34
2022-11-09T07:50:29.665Z,96115.31
2022-11-09T07:52:57.175Z,96109.00
2022-11-09T07:55:24.495Z,96084.69
2022-11-09T07:58:02.001Z,96107.53
2022-11-09T08:00:30.961Z,96103.34
2022-11-09T08:02:57.727Z,96121.44
2022-11-09T08:05:24.510Z,96087.09
2022-11-09T08:07:56.230Z,96082.31
2022-11-09T08:10:23.713Z,96133.78
2022-11-09T08:12:55.683Z,96123.59
2022-11-09T08:15:22.305Z,96119.81
2022-11-09T08:17:48.940Z,96147.16
2022-11-09T08:20:16.498Z,96173.63
2022-11-09T08:22:44.790Z,96137.53
2022-11-09T08:25:12.611Z,96166.66
2022-11-09T08:27:42.671Z,96149.31
2022-11-09T08:30:15.759Z,96171.06
2022-11-09T08:32:43.496Z,96160.91
2022-11-09T08:35:13.504Z,96140.00
2022-11-09T08:37:40.159Z,96097.94
2022-11-09T08:40:07.425Z,96143.63
2022-11-09T08:42:34.174Z,96105.22
2022-11-09T08:45:01.173Z,96136.34
2022-11-09T08:47:29.126Z,96122.47
2022-11-09T08:49:56.093Z,96159.47
2022-11-09T08:52:23.460Z,96159.75
2022-11-09T08:54:50.117Z,96140.44
2022-11-09T08:57:20.346Z,96159.97
2022-11-09T08:59:47.205Z,96118.97
2022-11-09T09:02:14.723Z,96164.94
2022-11-09T09:04:41.841Z,96171.28
2022-11-09T09:07:10.526Z,96170.03
2022-11-09T09:09:38.250Z,96166.31
2022-11-09T09:12:09.279Z,96199.78
2022-11-09T09:14:36.511Z,96176.09
2022-11-09T09:17:03.152Z,96185.97
2022-11-09T09:19:29.886Z,96206.25
2022-11-09T09:21:56.855Z,96162.75
2022-11-09T09:24:23.492Z,96156.88
2022-11-09T09:26:50.296Z,96172.53
2022-11-09T09:29:17.118Z,96193.59
2022-11-09T09:31:43.684Z,96143.91
2022-11-09T09:34:11.850Z,96181.66
2022-11-09T09:36:42.064Z,96170.06
2022-11-09T09:39:11.505Z,96131.69
2022-11-09T09:41:41.773Z,96153.50
2022-11-09T09:44:20.678Z,96181.84
2022-11-09T09:47:03.302Z,96153.34
2022-11-09T09:49:34.848Z,96193.44
2022-11-09T09:52:08.038Z,96196.06
2022-11-09T09:54:52.858Z,96186.16
2022-11-09T09:57:22.684Z,96190.63
2022-11-09T09:59:56.545Z,96181.34
2022-11-09T10:02:24.791Z,96169.56
2022-11-09T10:04:55.179Z,96168.16
2022-11-09T10:07:28.675Z,96187.66
2022-11-09T10:10:12.432Z,96209.63
2022-11-09T10:13:09.459Z,96186.06
2022-11-09T10:16:00.696Z,96175.38
2022-11-09T10:19:01.390Z,96199.84
2022-11-09T10:21:45.735Z,96192.88
2022-11-09T10:24:30.531Z,96199.22
2022-11-09T10:27:00.071Z,96147.22
2022-11-09T10:29:45.168Z,96171.31
2022-11-09T10:32:20.692Z,96189.72
2022-11-09T10:35:00.940Z,96190.53
2022-11-09T10:37:46.411Z,96179.13
2022-11-09T10:40:24.661Z,96182.75
2022-11-09T10:43:12.062Z,96174.91
2022-11-09T10:46:06.253Z,96143.78
2022-11-09T10:48:54.201Z,96165.97
2022-11-09T10:51:47.821Z,96127.47
2022-11-09T10:54:37.882Z,96143.88
2022-11-09T10:57:24.906Z,96120.25
2022-11-09T11:00:21.778Z,96121.16
2022-11-09T11:03:16.421Z,96087.84
2022-11-09T11:06:02.518Z,96149.50
2022-11-09T11:09:11.019Z,96156.06
2022-11-09T11:12:17.406Z,96143.75
2022-11-09T11:15:02.647Z,96108.94
2022-11-09T11:17:48.257Z,96145.47
2022-11-09T11:20:35.912Z,96124.34
2022-11-09T11:23:26.064Z,96116.22
2022-11-09T11:26:25.647Z,96119.88
2022-11-09T11:29:35.920Z,96120.56
2022-11-09T11:32:23.124Z,96106.75
2022-11-09T11:35:27.122Z,96129.22
2022-11-09T11:38:21.721Z,96130.09
2022-11-09T11:41:16.592Z,96127.09
2022-11-09T11:44:23.736Z,96126.25
2022-11-09T11:47:18.974Z,96122.94
2022-11-09T11:50:42.107Z,96113.31
2022-11-09T11:53:54.544Z,96111.78
2022-11-09T11:56:47.854Z,96113.22
2022-11-09T12:00:08.527Z,96101.22
2022-11-09T12:03:09.212Z,96078.31
2022-11-09T12:06:29.817Z,96113.31
2022-11-09T12:09:20.743Z,96113.75
2022-11-09T12:12:17.348Z,96093.34
2022-11-09T12:15:23.917Z,96099.28
2022-11-09T12:18:30.949Z,96093.59
2022-11-09T12:21:22.995Z,96101.41
2022-11-09T12:24:24.069Z,96067.94
2022-11-09T12:27:36.329Z,96056.91
2022-11-09T12:30:25.971Z,96065.00
2022-11-09T12:33:22.313Z,96103.69
2022-11-09T12:36:23.076Z,96101.06
2022-11-09T12:39:11.660Z,96099.75
2022-11-09T12:42:03.819Z,96099.81
2022-11-09T12:45:04.387Z,96072.09
2022-11-09T12:47:53.081Z,96046.88
2022-11-09T12:50:38.943Z,96045.63
2022-11-09T12:53:28.587Z,96034.72
2022-11-09T12:56:14.098Z,96079.34
2022-11-09T12:59:39.928Z,96080.59
2022-11-09T13:02:39.014Z,96091.91
2022-11-09T13:05:33.527Z,96082.28
2022-11-09T13:08:26.419Z,96108.63
2022-11-09T13:11:18.083Z,96115.88
2022-11-09T13:14:38.048Z,96104.16
2022-11-09T13:17:26.196Z,96125.03
2022-11-09T13:24:00.812Z,96097.53
2022-11-09T13:26:47.650Z,96114.91
2022-11-09T13:29:41.761Z,96104.88
2022-11-09T13:32:33.491Z,96118.22
2022-11-09T13:35:41.029Z,96106.81
2022-11-09T13:38:31.074Z,96099.00
2022-11-09T13:41:34.494Z,96099.88
2022-11-09T13:44:32.545Z,96106.69
2022-11-09T13:47:30.517Z,96089.78
2022-11-09T13:50:24.190Z,96103.75
2022-11-09T13:53:27.709Z,96114.69
2022-11-09T13:56:27.211Z,96097.47
2022-11-09T13:59:39.164Z,96114.91
2022-11-09T14:02:26.256Z,96126.44
2022-11-09T14:05:24.803Z,96090.00
2022-11-09T14:08:20.619Z,96106.63
2022-11-09T14:11:27.994Z,96121.22
2022-11-09T14:14:24.776Z,96095.53
2022-11-09T14:17:40.664Z,96068.91
2022-11-09T14:20:40.892Z,96118.13
2022-11-09T14:23:31.461Z,96112.91
2022-11-09T14:26:19.681Z,96119.00
2022-11-09T14:29:33.163Z,96119.75
2022-11-09T14:32:18.144Z,96135.56
2022-11-09T14:35:24.871Z,96142.84
2022-11-09T14:38:18.409Z,96145.78
2022-11-09T14:41:04.325Z,96123.34
2022-11-09T14:43:50.513Z,96140.31
2022-11-09T14:46:35.494Z,96131.75
2022-11-09T14:49:21.640Z,96109.44
2022-11-09T14:52:08.530Z,96080.97
2022-11-09T14:54:54.399Z,96128.41
2022-11-09T14:57:39.937Z,96127.09
2022-11-09T15:00:34.409Z,96161.75
2022-11-09T15:03:25.369Z,96156.00
2022-11-09T15:06:17.919Z,96152.38
2022-11-09T15:09:09.413Z,96098.41
2022-11-09T15:11:55.086Z,96079.44
2022-11-09T15:14:40.513Z,96122.19
2022-11-09T15:17:29.358Z,96151.53
2022-11-09T15:20:14.362Z,96151.66
2022-11-09T15:23:21.185Z,96169.28
2022-11-09T15:26:06.490Z,96120.13
2022-11-09T15:28:52.461Z,96153.63
2022-11-09T15:31:37.368Z,96155.19
2022-11-09T15:34:25.429Z,96128.88
2022-11-09T15:37:25.929Z,96154.78
2022-11-09T15:40:14.324Z,96148.06
2022-11-09T15:42:59.343Z,96160.25
2022-11-09T15:45:44.541Z,96116.16
2022-11-09T15:48:30.238Z,96139.25
2022-11-09T15:51:16.306Z,96132.22
2022-11-09T15:54:01.170Z,96139.66
2022-11-09T15:56:47.133Z,96159.94
2022-11-09T15:59:32.444Z,96165.16
2022-11-09T16:02:19.229Z,96152.75
2022-11-09T16:05:04.537Z,96131.03
2022-11-09T16:07:53.659Z,96164.63
2022-11-09T16:10:40.316Z,96142.56
2022-11-09T16:13:26.036Z,96147.84
2022-11-09T16:16:13.276Z,96146.28
2022-11-09T16:18:59.377Z,96177.91
2022-11-09T16:21:44.539Z,96168.34
2022-11-09T16:24:30.067Z,96159.50
2022-11-09T16:27:43.040Z,96126.25
2022-11-09T16:30:20.823Z,96169.19
2022-11-09T16:33:05.842Z,96176.84
2022-11-09T16:35:51.088Z,96173.22
2022-11-09T16:38:41.461Z,96160.38
2022-11-09T16:41:26.744Z,96162.94
2022-11-09T16:44:14.401Z,96166.66
2022-11-09T16:47:02.398Z,96185.91
2022-11-09T16:49:47.439Z,96168.34
2022-11-09T16:52:32.836Z,96192.88
2022-11-09T16:55:18.140Z,96188.00
2022-11-09T16:58:03.505Z,96212.13
2022-11-09T17:03:57.082Z,96169.44
2022-11-09T17:06:42.089Z,96171.22
2022-11-09T17:09:27.388Z,96185.94
2022-11-09T17:12:12.697Z,96184.84
2022-11-09T17:14:58.291Z,96208.25
2022-11-09T17:17:43.708Z,96187.88
2022-11-09T17:20:31.417Z,96232.28
2022-11-09T17:23:18.830Z,96222.22
2022-11-09T17:26:08.116Z,96223.19
2022-11-09T17:28:53.697Z,96237.25
2022-11-09T17:31:38.945Z,96243.59
2022-11-09T17:34:24.178Z,96210.00
2022-11-09T17:37:09.379Z,96217.72
2022-11-09T17:39:54.512Z,96243.28
2022-11-09T17:42:39.939Z,96234.38
2022-11-09T17:45:25.612Z,96202.97
2022-11-09T17:48:10.896Z,96236.88
2022-11-09T17:50:57.611Z,96252.66
2022-11-09T17:53:43.038Z,96254.34
2022-11-09T17:56:28.407Z,96256.06
2022-11-09T17:59:13.842Z,96237.19
2022-11-09T18:02:02.933Z,96183.81
2022-11-09T18:04:53.825Z,96226.81
2022-11-09T18:07:42.224Z,96255.50
2022-11-09T18:10:28.232Z,96248.38
2022-11-09T18:13:22.576Z,96264.78
2022-11-09T18:16:35.897Z,96253.78
2022-11-09T18:19:30.996Z,96176.53
2022-11-09T18:22:19.434Z,96266.31
2022-11-09T18:25:12.409Z,96235.34
2022-11-09T18:28:06.595Z,96239.22
2022-11-09T18:31:03.444Z,96264.59
2022-11-09T18:34:27.536Z,96263.69
2022-11-09T18:37:35.848Z,96238.94
2022-11-09T18:40:39.887Z,96264.19
2022-11-09T18:47:05.509Z,96245.88
2022-11-09T18:50:06.863Z,96274.72
2022-11-09T18:52:52.200Z,96205.81
2022-11-09T18:55:37.334Z,96276.41
2022-11-09T18:58:22.904Z,96209.84
2022-11-09T19:01:08.665Z,96241.09
2022-11-09T19:04:00.372Z,96260.28
2022-11-09T19:06:46.471Z,96275.63
2022-11-09T19:09:35.539Z,96213.13
2022-11-09T19:12:24.313Z,96226.56
2022-11-09T19:15:09.719Z,96261.53
2022-11-09T19:17:54.619Z,96269.13
2022-11-09T19:20:39.930Z,96258.44
2022-11-09T19:23:32.846Z,96290.81
2022-11-09T19:26:20.461Z,96275.78
2022-11-09T19:29:07.503Z,96269.31
2022-11-09T19:31:53.044Z,96260.00
2022-11-09T19:34:38.385Z,96248.38
2022-11-09T19:37:23.629Z,96264.66
2022-11-09T19:40:09.703Z,96271.78
2022-11-09T19:42:55.198Z,96250.09
2022-11-09T19:45:41.896Z,96254.72
2022-11-09T19:48:27.177Z,96294.66
2022-11-09T19:51:13.894Z,96283.69
2022-11-09T19:54:00.362Z,96291.00
2022-11-09T19:56:45.762Z,96296.38
2022-11-09T19:59:31.228Z,96281.38
2022-11-09T20:02:16.677Z,96272.25
2022-11-09T20:05:01.979Z,96291.44
2022-11-09T20:07:47.392Z,96296.09
2022-11-09T20:10:36.860Z,96306.44
2022-11-09T20:13:22.679Z,96293.88
2022-11-09T20:16:10.282Z,96306.44
2022-11-09T20:18:55.475Z,96261.69
2022-11-09T20:21:40.894Z,96315.72
2022-11-09T20:24:26.042Z,96294.06
2022-11-09T20:27:11.255Z,96313.41
2022-11-09T20:29:56.686Z,96273.47
2022-11-09T20:32:41.759Z,96327.69
2022-11-09T20:35:27.165Z,96315.44
2022-11-09T20:38:12.339Z,96270.34
2022-11-09T20:40:59.438Z,96297.59
2022-11-09T20:43:45.004Z,96259.53
2022-11-09T20:46:35.491Z,96332.63
2022-11-09T20:49:22.220Z,96269.56
2022-11-09T20:52:08.000Z,96330.47
2022-11-09T20:54:53.438Z,96312.78
2022-11-09T20:57:38.825Z,96252.53
2022-11-09T21:00:24.732Z,96302.41
2022-11-09T21:03:10.144Z,96288.78
2022-11-09T21:05:59.150Z,96325.00
2022-11-09T21:08:50.536Z,96342.22
2022-11-09T21:11:35.828Z,96315.38
2022-11-09T21:14:21.069Z,96341.25
2022-11-09T21:17:06.381Z,96292.41
2022-11-09T21:19:51.501Z,96297.09
2022-11-09T21:22:55.411Z,96336.75
2022-11-09T21:26:00.783Z,96336.13
2022-11-09T21:29:04.405Z,96316.16
2022-11-09T21:31:49.800Z,96237.91
2022-11-09T21:34:37.020Z,96340.44
2022-11-09T21:37:22.817Z,96287.31
2022-11-09T21:40:08.810Z,96327.75
2022-11-09T21:42:55.558Z,96325.91
2022-11-09T21:45:41.573Z,96355.81
2022-11-09T21:48:27.189Z,96296.28
2022-11-09T21:51:12.621Z,96345.59
2022-11-09T21:53:58.144Z,96343.72
2022-11-09T21:56:43.431Z,96356.59
2022-11-09T21:59:29.039Z,96310.88
2022-11-09T22:02:14.056Z,96334.56
2022-11-09T22:04:59.416Z,96331.00
2022-11-09T22:07:44.692Z,96338.16
2022-11-09T22:10:29.925Z,96371.63
2022-11-09T22:13:34.224Z,96367.44
2022-11-09T22:16:20.852Z,96356.75
2022-11-09T22:19:24.933Z,96335.00
2022-11-09T22:22:10.186Z,96362.94
2022-11-09T22:24:55.367Z,96307.88
2022-11-09T22:27:40.492Z,96338.59
2022-11-09T22:30:26.012Z,96346.47
2022-11-09T22:33:11.391Z,96371.09
2022-11-09T22:35:57.895Z,96370.81
2022-11-09T22:38:42.851Z,96365.56
2022-11-09T22:41:28.130Z,96383.53
2022-11-09T22:44:13.415Z,96347.38
2022-11-09T22:46:59.106Z,96347.84
2022-11-09T22:49:44.461Z,96369.31
2022-11-09T22:52:29.663Z,96358.47
2022-11-09T22:55:15.066Z,96347.16
2022-11-09T22:58:00.384Z,96347.34
2022-11-09T23:00:45.776Z,96379.28
2022-11-09T23:03:31.153Z,96393.53
2022-11-09T23:06:21.790Z,96384.09
2022-11-09T23:09:06.979Z,96354.50
2022-11-09T23:11:52.435Z,96377.13
2022-11-09T23:14:56.205Z,96377.59
2022-11-09T23:18:00.121Z,96394.34
2022-11-09T23:20:45.638Z,96354.97
2022-11-09T23:23:30.904Z,96397.88
2022-11-09T23:26:16.892Z,96402.19
2022-11-09T23:29:02.049Z,96365.06
2022-11-09T23:31:47.374Z,96394.09
2022-11-09T23:34:32.777Z,96406.94
2022-11-09T23:37:17.946Z,96419.16
2022-11-09T23:40:04.416Z,96417.31
2022-11-09T23:42:49.326Z,96404.41
2022-11-09T23:45:36.324Z,96410.00
2022-11-09T23:48:21.378Z,96403.19
2022-11-09T23:51:07.742Z,96425.41
2022-11-09T23:53:52.883Z,96363.53
2022-11-09T23:56:37.971Z,96392.34
2022-11-09T23:59:23.338Z,96416.22
